Time;durP1;ratioP1;P1;durP2;ratioP2;P2;SDS_P1;SDS_P2;PMS_P1;PMS_P2;Temp;Humidity;BMP_temperature;BMP_pressure;BME280_temperature;BME280_humidity;BME280_pressure;Samples;Min_cycle;Max_cycle;Signal;HPM_P1;HPM_P2
2021/10/08 00:00:20;;;;;;;6.95;5.90;;;;;;;;;;4913094;29;20055;-81
2021/10/08 00:02:48;;;;;;;6.57;5.00;;;;;;;;;;4898853;29;20083;-81
2021/10/08 00:05:16;;;;;;;8.43;4.95;;;;;;;;;;4927471;29;20423;-81
2021/10/08 00:07:44;;;;;;;5.40;3.97;;;;;;;;;;4930382;29;20063;-81
2021/10/08 00:10:12;;;;;;;5.30;3.40;;;;;;;;;;4930134;29;20532;-81
2021/10/08 00:12:40;;;;;;;6.05;4.85;;;;;;;;;;4929482;29;20512;-81
2021/10/08 00:15:08;;;;;;;4.53;3.53;;;;;;;;;;4915948;29;20047;-81
2021/10/08 00:17:37;;;;;;;7.25;4.85;;;;;;;;;;4915169;29;20494;-81
2021/10/08 00:20:05;;;;;;;5.25;3.28;;;;;;;;;;4896559;29;20475;-81
2021/10/08 00:22:33;;;;;;;5.45;4.53;;;;;;;;;;4912767;29;20060;-81
2021/10/08 00:25:01;;;;;;;5.72;5.10;;;;;;;;;;4911909;29;20048;-81
2021/10/08 00:27:29;;;;;;;25.45;6.43;;;;;;;;;;4911855;29;20612;-81
2021/10/08 00:29:57;;;;;;;7.07;3.72;;;;;;;;;;4911877;29;20055;-81
2021/10/08 00:32:25;;;;;;;5.60;3.80;;;;;;;;;;4930817;29;20401;-81
2021/10/08 00:34:53;;;;;;;4.45;3.35;;;;;;;;;;4932272;29;20051;-81
2021/10/08 00:37:21;;;;;;;6.00;4.85;;;;;;;;;;4914488;29;20052;-81
2021/10/08 00:39:49;;;;;;;3.80;3.40;;;;;;;;;;4899823;29;20040;-81
2021/10/08 00:42:22;;;;;;;5.20;3.58;;;;;;;;;;4931455;29;20084;-81
2021/10/08 00:44:50;;;;;;;5.60;4.10;;;;;;;;;;4915139;29;20051;-81
2021/10/08 00:47:18;;;;;;;4.90;3.22;;;;;;;;;;4932083;29;20091;-81
2021/10/08 00:49:46;;;;;;;6.25;4.63;;;;;;;;;;4914572;29;20044;-81
2021/10/08 00:52:14;;;;;;;6.10;4.07;;;;;;;;;;4931979;29;20402;-81
2021/10/08 00:54:42;;;;;;;6.20;4.03;;;;;;;;;;4931683;29;20047;-81
2021/10/08 00:57:10;;;;;;;6.43;5.18;;;;;;;;;;4914236;29;20063;-81
2021/10/08 00:59:38;;;;;;;8.70;5.30;;;;;;;;;;4932165;29;20048;-81
2021/10/08 01:02:06;;;;;;;6.40;5.32;;;;;;;;;;4931305;29;20043;-81
2021/10/08 01:04:34;;;;;;;6.65;4.72;;;;;;;;;;4922052;29;20044;-81
2021/10/08 01:07:02;;;;;;;10.95;5.78;;;;;;;;;;4911128;29;20062;-81
2021/10/08 01:09:30;;;;;;;8.85;5.90;;;;;;;;;;4918461;29;20397;-81
2021/10/08 01:11:59;;;;;;;6.82;5.05;;;;;;;;;;4907916;29;20067;-81
2021/10/08 01:14:29;;;;;;;6.72;4.38;;;;;;;;;;4905622;29;20557;-81
2021/10/08 01:16:58;;;;;;;8.25;5.05;;;;;;;;;;4879782;29;20060;-81
2021/10/08 01:19:26;;;;;;;5.47;4.45;;;;;;;;;;4896493;29;20044;-81
2021/10/08 01:21:59;;;;;;;7.60;4.97;;;;;;;;;;4914249;29;20056;-81
2021/10/08 01:24:27;;;;;;;6.45;4.82;;;;;;;;;;4932105;29;20048;-81
2021/10/08 01:26:57;;;;;;;6.68;4.57;;;;;;;;;;4898475;29;20059;-81
2021/10/08 01:29:26;;;;;;;7.13;5.50;;;;;;;;;;4898721;29;20052;-81
2021/10/08 01:31:54;;;;;;;8.63;4.40;;;;;;;;;;4916373;29;20048;-81
2021/10/08 01:34:22;;;;;;;9.52;6.63;;;;;;;;;;4920428;29;20059;-81
2021/10/08 01:36:55;;;;;;;7.70;4.85;;;;;;;;;;4936365;29;20066;-81
2021/10/08 01:39:23;;;;;;;7.40;5.38;;;;;;;;;;4937316;29;20050;-81
2021/10/08 01:41:52;;;;;;;9.73;4.85;;;;;;;;;;4935959;29;20039;-81
2021/10/08 01:44:23;;;;;;;7.05;5.00;;;;;;;;;;4937285;29;20589;-81
2021/10/08 01:46:52;;;;;;;6.82;4.85;;;;;;;;;;4936447;29;20055;-81
2021/10/08 01:49:25;;;;;;;7.60;5.13;;;;;;;;;;4936693;29;20043;-81
2021/10/08 01:51:54;;;;;;;6.70;5.03;;;;;;;;;;4936518;29;20071;-81
2021/10/08 01:54:23;;;;;;;5.00;4.07;;;;;;;;;;4936270;29;20054;-81
2021/10/08 01:56:51;;;;;;;5.38;4.70;;;;;;;;;;4934103;28;20058;-81
2021/10/08 01:59:20;;;;;;;6.43;4.55;;;;;;;;;;4936660;29;20393;-81
2021/10/08 02:01:48;;;;;;;5.88;4.10;;;;;;;;;;4936191;29;20501;-81
2021/10/08 02:04:19;;;;;;;7.13;4.82;;;;;;;;;;4924995;29;20059;-81
2021/10/08 02:06:47;;;;;;;6.00;4.72;;;;;;;;;;4935403;29;20054;-81
2021/10/08 02:09:17;;;;;;;6.05;5.30;;;;;;;;;;4952377;29;20050;-81
2021/10/08 02:11:45;;;;;;;6.93;5.05;;;;;;;;;;4951884;29;20051;-81
2021/10/08 02:14:14;;;;;;;9.30;5.35;;;;;;;;;;4928313;29;20058;-78
2021/10/08 02:16:46;;;;;;;7.15;6.35;;;;;;;;;;4932049;29;20051;-78
2021/10/08 02:19:14;;;;;;;8.35;5.40;;;;;;;;;;4932364;29;20043;-81
2021/10/08 02:21:47;;;;;;;6.43;5.82;;;;;;;;;;4914390;29;20481;-81
2021/10/08 02:24:17;;;;;;;6.47;4.55;;;;;;;;;;4885714;29;20070;-81
2021/10/08 02:26:49;;;;;;;6.55;4.80;;;;;;;;;;4885123;29;20063;-81
2021/10/08 02:29:25;;;;;;;7.53;6.32;;;;;;;;;;4902387;29;20054;-81
2021/10/08 02:31:54;;;;;;;7.78;6.40;;;;;;;;;;4901505;29;20048;-81
2021/10/08 02:34:23;;;;;;;7.63;6.47;;;;;;;;;;4931965;29;20512;-81
2021/10/08 02:36:51;;;;;;;6.97;5.88;;;;;;;;;;4916555;29;20367;-81
2021/10/08 02:39:19;;;;;;;6.97;4.85;;;;;;;;;;4933175;29;20218;-81
2021/10/08 02:41:47;;;;;;;6.28;4.50;;;;;;;;;;4931819;29;20044;-81
2021/10/08 02:44:15;;;;;;;8.32;5.15;;;;;;;;;;4933855;29;20058;-81
2021/10/08 02:46:43;;;;;;;7.93;5.13;;;;;;;;;;4900986;29;20055;-81
2021/10/08 02:49:11;;;;;;;8.10;6.53;;;;;;;;;;4932246;29;20408;-81
2021/10/08 02:51:41;;;;;;;11.27;5.65;;;;;;;;;;4932426;29;20055;-81
2021/10/08 02:54:09;;;;;;;7.65;4.97;;;;;;;;;;4933089;29;20047;-87
2021/10/08 02:56:37;;;;;;;10.00;7.60;;;;;;;;;;4919545;29;20055;-88
2021/10/08 02:59:06;;;;;;;7.13;5.18;;;;;;;;;;4916910;29;20055;-81
2021/10/08 03:01:34;;;;;;;7.47;5.32;;;;;;;;;;4932711;29;20044;-81
2021/10/08 03:04:04;;;;;;;8.25;7.38;;;;;;;;;;4939451;28;20057;-81
2021/10/08 03:06:32;;;;;;;7.57;5.45;;;;;;;;;;4936376;28;20050;-81
2021/10/08 03:09:04;;;;;;;8.15;6.18;;;;;;;;;;4920609;28;20523;-81
2021/10/08 03:11:33;;;;;;;12.68;5.55;;;;;;;;;;4950278;28;20051;-81
2021/10/08 03:14:01;;;;;;;10.88;7.20;;;;;;;;;;4943103;28;20035;-81
2021/10/08 03:16:29;;;;;;;8.93;6.18;;;;;;;;;;4900439;29;20055;-81
2021/10/08 03:18:58;;;;;;;9.45;5.95;;;;;;;;;;4933147;29;20043;-81
2021/10/08 03:21:26;;;;;;;8.57;6.95;;;;;;;;;;4931717;29;20062;-81
2021/10/08 03:23:54;;;;;;;10.48;7.75;;;;;;;;;;4901610;29;20055;-81
2021/10/08 03:26:24;;;;;;;6.53;5.28;;;;;;;;;;4893731;29;20048;-81
2021/10/08 03:28:52;;;;;;;7.75;6.63;;;;;;;;;;4879878;29;20060;-81
2021/10/08 03:31:21;;;;;;;7.60;5.18;;;;;;;;;;4911897;29;20056;-81
2021/10/08 03:33:49;;;;;;;9.60;6.60;;;;;;;;;;4863748;29;20457;-81
2021/10/08 03:36:31;;;;;;;9.25;5.28;;;;;;;;;;4879218;29;20048;-81
2021/10/08 03:38:59;;;;;;;6.97;6.32;;;;;;;;;;4911955;29;20052;-81
2021/10/08 03:41:28;;;;;;;7.30;6.18;;;;;;;;;;4877071;29;20044;-81
2021/10/08 03:43:56;;;;;;;8.68;5.97;;;;;;;;;;4894847;29;20056;-81
2021/10/08 03:46:26;;;;;;;10.10;7.88;;;;;;;;;;4894495;29;20051;-81
2021/10/08 03:51:35;;;;;;;10.68;6.72;;;;;;;;;;4894025;29;20071;-81
2021/10/08 03:54:04;;;;;;;10.50;6.60;;;;;;;;;;4879733;29;20044;-81
2021/10/08 03:56:32;;;;;;;8.98;5.25;;;;;;;;;;4912236;29;20056;-81
2021/10/08 03:59:00;;;;;;;8.50;6.40;;;;;;;;;;4899025;29;20048;-81
2021/10/08 04:01:29;;;;;;;8.20;5.95;;;;;;;;;;4890323;29;20434;-81
2021/10/08 04:03:57;;;;;;;7.20;6.43;;;;;;;;;;4920340;29;20039;-81
2021/10/08 04:06:34;;;;;;;9.18;6.28;;;;;;;;;;4932165;29;20386;-81
2021/10/08 04:09:16;;;;;;;10.60;5.93;;;;;;;;;;4932905;29;20050;-81
2021/10/08 04:11:47;;;;;;;10.45;6.05;;;;;;;;;;4930172;29;20055;-81
2021/10/08 04:14:15;;;;;;;14.35;9.13;;;;;;;;;;4905570;29;20048;-81
2021/10/08 04:16:44;;;;;;;15.85;8.38;;;;;;;;;;4895908;29;20059;-81
2021/10/08 04:19:12;;;;;;;17.23;10.10;;;;;;;;;;4896356;29;20059;-81
2021/10/08 04:21:41;;;;;;;15.48;9.68;;;;;;;;;;4902544;29;20059;-81
2021/10/08 04:24:10;;;;;;;13.98;9.50;;;;;;;;;;4915080;29;20047;-80
2021/10/08 04:26:38;;;;;;;17.20;10.02;;;;;;;;;;4914032;29;20052;-81
2021/10/08 04:29:06;;;;;;;13.07;10.63;;;;;;;;;;4914556;29;20277;-81
2021/10/08 04:31:38;;;;;;;13.25;9.50;;;;;;;;;;4924230;29;20055;-81
2021/10/08 04:34:06;;;;;;;18.52;9.38;;;;;;;;;;4918266;29;20052;-81
2021/10/08 04:36:38;;;;;;;16.70;8.35;;;;;;;;;;4916684;29;20384;-81
2021/10/08 04:39:07;;;;;;;;;;;;;;;;;;4916825;29;20444;-81
2021/10/08 04:41:34;;;;;;;24.92;9.85;;;;;;;;;;4910424;29;19926;-80
2021/10/08 04:44:04;;;;;;;16.35;9.98;;;;;;;;;;4913609;29;20059;-81
2021/10/08 04:46:32;;;;;;;14.45;8.95;;;;;;;;;;4913097;29;20047;-81
2021/10/08 04:49:00;;;;;;;11.82;7.40;;;;;;;;;;4896509;29;20051;-81
2021/10/08 04:51:30;;;;;;;17.95;8.88;;;;;;;;;;4895901;29;20063;-81
2021/10/08 04:53:58;;;;;;;17.90;8.73;;;;;;;;;;4926258;29;20047;-80
2021/10/08 04:56:27;;;;;;;15.68;10.35;;;;;;;;;;4933655;28;20501;-80
2021/10/08 04:58:55;;;;;;;18.17;9.02;;;;;;;;;;4937052;29;20050;-80
2021/10/08 05:01:24;;;;;;;17.80;9.45;;;;;;;;;;4937161;29;20051;-79
2021/10/08 05:03:52;;;;;;;16.80;9.98;;;;;;;;;;4938766;29;20064;-78
2021/10/08 05:06:20;;;;;;;11.18;8.77;;;;;;;;;;4952940;28;20051;-80
2021/10/08 05:08:54;;;;;;;21.15;9.57;;;;;;;;;;4954689;28;20664;-80
2021/10/08 05:11:23;;;;;;;14.45;8.27;;;;;;;;;;4952753;29;20070;-80
2021/10/08 05:13:51;;;;;;;12.70;8.48;;;;;;;;;;4952991;28;20047;-80
2021/10/08 05:16:19;;;;;;;15.90;10.15;;;;;;;;;;4950994;29;20059;-81
2021/10/08 05:18:52;;;;;;;13.50;9.07;;;;;;;;;;4918205;29;20065;-80
2021/10/08 05:21:23;;;;;;;13.80;9.20;;;;;;;;;;4937901;28;20456;-81
2021/10/08 05:23:52;;;;;;;15.70;10.15;;;;;;;;;;4957026;28;20051;-81
2021/10/08 05:26:20;;;;;;;15.60;9.15;;;;;;;;;;4936624;29;20408;-81
2021/10/08 05:28:48;;;;;;;14.80;8.43;;;;;;;;;;4924445;28;20713;-81
2021/10/08 05:31:16;;;;;;;19.67;11.10;;;;;;;;;;4943466;28;20042;-80
2021/10/08 05:33:45;;;;;;;18.75;9.98;;;;;;;;;;4935992;29;20051;-80
2021/10/08 05:36:14;;;;;;;32.35;12.98;;;;;;;;;;4939618;29;20051;-80
2021/10/08 05:38:43;;;;;;;19.00;9.95;;;;;;;;;;4954027;29;20058;-80
2021/10/08 05:41:14;;;;;;;18.02;10.10;;;;;;;;;;4953043;29;20507;-80
2021/10/08 05:43:44;;;;;;;30.25;13.35;;;;;;;;;;4937316;29;20046;-80
2021/10/08 05:46:13;;;;;;;23.27;12.50;;;;;;;;;;4939428;29;20047;-80
2021/10/08 05:48:41;;;;;;;24.05;11.43;;;;;;;;;;4928376;29;20055;-80
2021/10/08 05:51:11;;;;;;;19.58;10.85;;;;;;;;;;4944475;29;20059;-80
2021/10/08 05:53:39;;;;;;;12.82;10.52;;;;;;;;;;4942363;28;20058;-80
2021/10/08 05:56:07;;;;;;;13.77;8.95;;;;;;;;;;4928082;29;20054;-80
2021/10/08 05:58:36;;;;;;;17.67;12.40;;;;;;;;;;4941577;29;20039;-80
2021/10/08 06:01:05;;;;;;;19.95;10.93;;;;;;;;;;4943317;29;20055;-80
2021/10/08 06:03:34;;;;;;;15.85;9.13;;;;;;;;;;4944219;29;20054;-80
2021/10/08 06:06:02;;;;;;;26.10;10.45;;;;;;;;;;4943310;28;20043;-80
2021/10/08 06:08:32;;;;;;;20.48;12.25;;;;;;;;;;4940110;28;20051;-80
2021/10/08 06:11:01;;;;;;;24.95;14.13;;;;;;;;;;4942834;29;20042;-80
2021/10/08 06:13:32;;;;;;;22.85;10.73;;;;;;;;;;4943733;28;20047;-80
2021/10/08 06:16:01;;;;;;;17.55;10.25;;;;;;;;;;4946516;29;20047;-80
2021/10/08 06:18:29;;;;;;;21.75;12.23;;;;;;;;;;4933556;29;20047;-81
2021/10/08 06:20:59;;;;;;;23.40;10.75;;;;;;;;;;4927195;28;20502;-80
2021/10/08 06:23:28;;;;;;;21.05;10.68;;;;;;;;;;4933543;29;20054;-80
2021/10/08 06:25:56;;;;;;;17.63;11.70;;;;;;;;;;4942736;28;20043;-80
2021/10/08 06:28:25;;;;;;;14.27;9.50;;;;;;;;;;4944238;28;20054;-79
2021/10/08 06:30:54;;;;;;;16.90;11.75;;;;;;;;;;4939911;29;20047;-80
2021/10/08 06:33:23;;;;;;;19.55;10.57;;;;;;;;;;4935662;29;20441;-81
2021/10/08 06:35:52;;;;;;;24.58;11.40;;;;;;;;;;4936074;29;20059;-80
2021/10/08 06:38:21;;;;;;;25.63;11.73;;;;;;;;;;4935538;29;20058;-80
2021/10/08 06:40:52;;;;;;;17.55;9.82;;;;;;;;;;4934736;29;20047;-80
2021/10/08 06:43:21;;;;;;;17.27;10.05;;;;;;;;;;4935775;29;20054;-81
2021/10/08 06:45:59;;;;;;;17.98;10.48;;;;;;;;;;4935109;29;20051;-81
2021/10/08 06:48:28;;;;;;;18.83;8.80;;;;;;;;;;4903949;29;20051;-80
2021/10/08 06:50:57;;;;;;;35.40;14.25;;;;;;;;;;4935337;29;20043;-82
2021/10/08 06:53:26;;;;;;;27.17;12.55;;;;;;;;;;4950678;29;20140;-82
2021/10/08 06:55:54;;;;;;;20.00;12.38;;;;;;;;;;4935966;29;20058;-81
2021/10/08 06:58:41;;;;;;;20.98;11.07;;;;;;;;;;4934811;29;20055;-82
2021/10/08 07:01:10;;;;;;;28.25;12.98;;;;;;;;;;4916157;29;20058;-81
2021/10/08 07:03:39;;;;;;;21.60;11.38;;;;;;;;;;4916027;29;20059;-81
2021/10/08 07:06:07;;;;;;;25.27;14.18;;;;;;;;;;4928016;29;20066;-81
2021/10/08 07:08:35;;;;;;;19.27;12.02;;;;;;;;;;4908633;29;20433;-81
2021/10/08 07:11:03;;;;;;;24.00;11.57;;;;;;;;;;4932157;29;20044;-82
2021/10/08 07:13:31;;;;;;;23.90;11.68;;;;;;;;;;4948050;28;20136;-82
2021/10/08 07:16:02;;;;;;;18.80;11.70;;;;;;;;;;4952911;29;20058;-82
2021/10/08 07:18:44;;;;;;;22.80;13.75;;;;;;;;;;4952361;28;20051;-83
2021/10/08 07:21:13;;;;;;;24.35;12.15;;;;;;;;;;4949237;28;20067;-83
2021/10/08 07:23:45;;;;;;;26.38;14.77;;;;;;;;;;4952559;29;20059;-83
2021/10/08 07:26:14;;;;;;;18.23;10.82;;;;;;;;;;4951772;29;20043;-83
2021/10/08 07:28:43;;;;;;;39.92;11.52;;;;;;;;;;4951892;28;20055;-83
2021/10/08 07:31:11;;;;;;;21.98;13.43;;;;;;;;;;4935348;29;20055;-83
2021/10/08 07:33:41;;;;;;;23.85;10.57;;;;;;;;;;4933996;29;20058;-83
2021/10/08 07:36:10;;;;;;;23.92;12.32;;;;;;;;;;4952243;29;20055;-83
2021/10/08 07:38:38;;;;;;;23.80;13.23;;;;;;;;;;4933914;29;20070;-83
2021/10/08 07:41:07;;;;;;;22.38;10.27;;;;;;;;;;4934106;29;20051;-83
2021/10/08 07:43:37;;;;;;;19.23;12.25;;;;;;;;;;4918368;29;20058;-83
2021/10/08 07:46:05;;;;;;;21.98;10.85;;;;;;;;;;4951653;29;20485;-84
2021/10/08 07:48:34;;;;;;;19.73;11.68;;;;;;;;;;4951836;29;20058;-83
2021/10/08 07:51:03;;;;;;;19.90;10.50;;;;;;;;;;4934166;29;20526;-83
2021/10/08 07:53:31;;;;;;;14.18;8.57;;;;;;;;;;4933807;29;20062;-84
2021/10/08 07:56:00;;;;;;;25.98;11.70;;;;;;;;;;4952006;29;20799;-83
2021/10/08 07:58:28;;;;;;;18.30;10.45;;;;;;;;;;4934397;29;20054;-83
2021/10/08 08:00:57;;;;;;;19.60;9.18;;;;;;;;;;4950465;29;20066;-83
2021/10/08 08:03:25;;;;;;;14.82;8.75;;;;;;;;;;4918441;29;20051;-83
2021/10/08 08:05:53;;;;;;;16.83;9.52;;;;;;;;;;4951357;29;20062;-83
2021/10/08 08:08:23;;;;;;;12.82;6.63;;;;;;;;;;4934266;29;20047;-83
2021/10/08 08:10:51;;;;;;;15.55;9.00;;;;;;;;;;4933095;29;20393;-83
2021/10/08 08:13:19;;;;;;;14.98;8.00;;;;;;;;;;4915085;29;20055;-83
2021/10/08 08:15:47;;;;;;;14.40;8.25;;;;;;;;;;4934128;29;20055;-83
2021/10/08 08:18:15;;;;;;;14.52;8.27;;;;;;;;;;4917429;28;20044;-82
2021/10/08 08:20:44;;;;;;;12.25;6.47;;;;;;;;;;4939282;29;20044;-83
2021/10/08 08:23:12;;;;;;;13.60;9.60;;;;;;;;;;4895676;29;20135;-83
2021/10/08 08:25:40;;;;;;;11.23;6.32;;;;;;;;;;4912513;29;20063;-83
2021/10/08 08:28:08;;;;;;;12.45;6.63;;;;;;;;;;4894659;29;20048;-83
2021/10/08 08:30:39;;;;;;;17.55;7.53;;;;;;;;;;4911941;29;20044;-82
2021/10/08 08:33:07;;;;;;;8.85;5.40;;;;;;;;;;4914092;29;20133;-82
2021/10/08 08:35:35;;;;;;;11.50;6.75;;;;;;;;;;4916186;29;20506;-83
2021/10/08 08:38:04;;;;;;;12.02;7.03;;;;;;;;;;4900283;29;20060;-83
2021/10/08 08:40:32;;;;;;;20.38;8.23;;;;;;;;;;4916971;29;20052;-83
2021/10/08 08:43:01;;;;;;;14.93;7.07;;;;;;;;;;4914870;29;20379;-82
2021/10/08 08:45:30;;;;;;;10.98;7.43;;;;;;;;;;4918819;29;20072;-82
2021/10/08 08:48:03;;;;;;;10.30;7.15;;;;;;;;;;4924431;29;20510;-83
2021/10/08 08:50:32;;;;;;;11.20;7.93;;;;;;;;;;4899483;29;20052;-83
2021/10/08 08:53:00;;;;;;;10.57;6.43;;;;;;;;;;4916934;29;20044;-82
2021/10/08 08:55:29;;;;;;;9.88;6.07;;;;;;;;;;4899708;29;20056;-82
2021/10/08 08:57:57;;;;;;;9.43;6.13;;;;;;;;;;4916736;29;20055;-83
2021/10/08 09:00:25;;;;;;;10.38;6.80;;;;;;;;;;4915127;29;20044;-82
2021/10/08 09:02:54;;;;;;;9.27;6.55;;;;;;;;;;4916466;29;20398;-82
2021/10/08 09:05:23;;;;;;;10.80;8.18;;;;;;;;;;4949262;29;20883;-82
2021/10/08 09:07:55;;;;;;;10.43;8.40;;;;;;;;;;4937140;29;20059;-82
2021/10/08 09:10:28;;;;;;;11.05;6.90;;;;;;;;;;4937383;29;20062;-82
2021/10/08 09:12:57;;;;;;;13.95;7.97;;;;;;;;;;4953168;29;20054;-82
2021/10/08 09:15:28;;;;;;;10.60;7.47;;;;;;;;;;4935455;29;20125;-82
2021/10/08 09:18:07;;;;;;;8.75;7.40;;;;;;;;;;4918727;29;20057;-82
2021/10/08 09:20:36;;;;;;;12.80;8.25;;;;;;;;;;4934528;29;20056;-82
2021/10/08 09:23:04;;;;;;;17.45;7.53;;;;;;;;;;4952833;28;20058;-82
2021/10/08 09:25:34;;;;;;;11.07;7.25;;;;;;;;;;4942978;29;20056;-82
2021/10/08 09:28:06;;;;;;;11.90;9.57;;;;;;;;;;4934459;29;20056;-82
2021/10/08 09:30:42;;;;;;;14.32;8.95;;;;;;;;;;4934462;29;20129;-82
2021/10/08 09:33:11;;;;;;;14.32;9.13;;;;;;;;;;4940469;28;20505;-84
2021/10/08 09:35:42;;;;;;;13.45;9.05;;;;;;;;;;4922519;29;20059;-83
2021/10/08 09:38:12;;;;;;;15.07;9.25;;;;;;;;;;4954034;28;20489;-82
2021/10/08 09:40:51;;;;;;;15.38;11.00;;;;;;;;;;4954091;29;20050;-83
2021/10/08 09:43:30;;;;;;;15.45;11.55;;;;;;;;;;4953639;28;20047;-81
2021/10/08 09:45:59;;;;;;;15.95;9.45;;;;;;;;;;4953859;28;20043;-82
2021/10/08 09:48:42;;;;;;;15.35;10.27;;;;;;;;;;4935579;29;20553;-82
2021/10/08 09:51:17;;;;;;;17.85;10.80;;;;;;;;;;4953794;29;20047;-82
2021/10/08 09:53:51;;;;;;;16.33;10.55;;;;;;;;;;4953711;28;20488;-82
2021/10/08 09:56:39;;;;;;;18.08;10.82;;;;;;;;;;4953712;29;20063;-82
2021/10/08 09:59:12;;;;;;;18.65;11.55;;;;;;;;;;4937100;29;20051;-80
2021/10/08 10:01:41;;;;;;;19.13;13.95;;;;;;;;;;4952247;28;20408;-83
2021/10/08 10:04:10;;;;;;;20.05;12.73;;;;;;;;;;4940374;29;20058;-82
2021/10/08 10:06:38;;;;;;;17.08;11.38;;;;;;;;;;4952986;28;20051;-82
2021/10/08 10:09:08;;;;;;;24.33;14.02;;;;;;;;;;4953447;29;20043;-82
2021/10/08 10:11:36;;;;;;;20.08;13.30;;;;;;;;;;4934550;29;20058;-82
2021/10/08 10:14:05;;;;;;;21.40;14.85;;;;;;;;;;4953318;28;20054;-81
2021/10/08 10:16:33;;;;;;;22.05;14.32;;;;;;;;;;4953287;29;20051;-82
2021/10/08 10:19:03;;;;;;;24.45;16.77;;;;;;;;;;4936786;29;20051;-81
2021/10/08 10:21:32;;;;;;;18.73;14.18;;;;;;;;;;4935484;29;20497;-82
2021/10/08 10:24:01;;;;;;;21.05;14.93;;;;;;;;;;4953559;29;20400;-82
2021/10/08 10:26:30;;;;;;;26.33;15.52;;;;;;;;;;4952609;29;20054;-79
2021/10/08 10:28:59;;;;;;;20.85;13.93;;;;;;;;;;4935491;29;20051;-79
2021/10/08 10:31:27;;;;;;;23.05;14.00;;;;;;;;;;4935951;29;20697;-79
2021/10/08 10:33:58;;;;;;;24.73;16.23;;;;;;;;;;4935961;29;20668;-80
2021/10/08 10:36:29;;;;;;;19.20;13.10;;;;;;;;;;4952915;29;20837;-80
2021/10/08 10:39:13;;;;;;;23.60;14.77;;;;;;;;;;4952878;29;20039;-80
2021/10/08 10:41:42;;;;;;;18.92;13.80;;;;;;;;;;4952042;28;20055;-80
2021/10/08 10:44:26;;;;;;;31.23;14.55;;;;;;;;;;4952643;29;20051;-79
2021/10/08 10:47:13;;;;;;;21.38;15.25;;;;;;;;;;4951135;29;20513;-81
2021/10/08 10:49:45;;;;;;;24.02;14.10;;;;;;;;;;4948841;28;20416;-79
2021/10/08 10:52:21;;;;;;;22.45;13.30;;;;;;;;;;4952652;29;20047;-80
2021/10/08 10:54:51;;;;;;;21.98;16.05;;;;;;;;;;4951703;28;20051;-79
2021/10/08 10:57:19;;;;;;;27.38;14.48;;;;;;;;;;4951881;29;20047;-79
2021/10/08 10:59:48;;;;;;;22.73;14.90;;;;;;;;;;4952833;29;20051;-80
2021/10/08 11:02:22;;;;;;;26.02;16.35;;;;;;;;;;4950601;28;20039;-79
2021/10/08 11:04:55;;;;;;;25.92;15.10;;;;;;;;;;4959392;28;20050;-80
2021/10/08 11:07:24;;;;;;;21.90;14.70;;;;;;;;;;4955038;28;20053;-80
2021/10/08 11:10:04;;;;;;;20.40;12.57;;;;;;;;;;4954938;28;20058;-81
2021/10/08 11:12:42;;;;;;;19.65;12.98;;;;;;;;;;4941496;29;20043;-81
2021/10/08 11:15:20;;;;;;;21.15;12.65;;;;;;;;;;4952903;29;20059;-80
2021/10/08 11:17:52;;;;;;;20.75;14.25;;;;;;;;;;4961800;28;20484;-80
2021/10/08 11:20:28;;;;;;;24.92;13.90;;;;;;;;;;4966879;28;20062;-80
2021/10/08 11:22:58;;;;;;;23.58;12.75;;;;;;;;;;4950129;28;20062;-79
2021/10/08 11:25:27;;;;;;;18.88;15.13;;;;;;;;;;4938992;29;20055;-81
2021/10/08 11:27:55;;;;;;;19.67;13.23;;;;;;;;;;4931809;29;20055;-80
2021/10/08 11:30:24;;;;;;;19.83;12.77;;;;;;;;;;4915517;29;20051;-78
2021/10/08 11:32:53;;;;;;;19.27;14.10;;;;;;;;;;4950928;28;20386;-81
2021/10/08 11:35:32;;;;;;;25.27;16.13;;;;;;;;;;4935124;29;20055;-79
2021/10/08 11:38:01;;;;;;;19.75;11.52;;;;;;;;;;4951907;29;20047;-81
2021/10/08 11:40:32;;;;;;;24.08;16.23;;;;;;;;;;4951508;28;20050;-80
2021/10/08 11:43:08;;;;;;;22.98;13.63;;;;;;;;;;4934017;29;20055;-80
2021/10/08 11:45:45;;;;;;;23.42;16.35;;;;;;;;;;4951594;29;20075;-79
2021/10/08 11:50:46;;;;;;;22.17;13.32;;;;;;;;;;4951291;28;20050;-79
2021/10/08 11:53:14;;;;;;;23.73;16.67;;;;;;;;;;4951346;29;20671;-79
2021/10/08 11:56:34;;;;;;;22.50;13.55;;;;;;;;;;4937148;29;20058;-80
2021/10/08 11:59:05;;;;;;;19.50;14.13;;;;;;;;;;4878337;29;20215;-79
2021/10/08 12:01:33;;;;;;;23.48;13.23;;;;;;;;;;4949271;29;20047;-79
2021/10/08 12:04:01;;;;;;;18.92;12.98;;;;;;;;;;4938659;28;20050;-80
2021/10/08 12:06:31;;;;;;;18.48;11.98;;;;;;;;;;4968710;28;20050;-80
2021/10/08 12:09:04;;;;;;;18.88;11.75;;;;;;;;;;4951422;28;20047;-80
2021/10/08 12:11:33;;;;;;;16.58;10.93;;;;;;;;;;4950075;28;20066;-80
2021/10/08 12:14:04;;;;;;;16.00;11.95;;;;;;;;;;4964101;28;20058;-79
2021/10/08 12:16:42;;;;;;;19.45;12.82;;;;;;;;;;4949993;29;20492;-81
2021/10/08 12:19:12;;;;;;;18.35;12.13;;;;;;;;;;4932822;29;20058;-80
2021/10/08 12:21:41;;;;;;;16.45;11.98;;;;;;;;;;4932033;29;20519;-79
2021/10/08 12:24:10;;;;;;;16.88;10.82;;;;;;;;;;4967959;28;20058;-79
2021/10/08 12:26:42;;;;;;;18.05;11.57;;;;;;;;;;4965672;28;20054;-79
2021/10/08 12:29:14;;;;;;;19.38;11.07;;;;;;;;;;4951058;28;20051;-80
2021/10/08 12:31:49;;;;;;;16.23;10.27;;;;;;;;;;4951211;29;20047;-80
2021/10/08 12:34:37;;;;;;;15.93;10.68;;;;;;;;;;4902502;29;20054;-80
2021/10/08 12:37:07;;;;;;;15.85;11.02;;;;;;;;;;4950829;29;20073;-79
2021/10/08 12:39:39;;;;;;;17.30;9.38;;;;;;;;;;4944688;28;20050;-80
2021/10/08 12:42:07;;;;;;;;;;;;;;;;;;4952463;28;20055;-79
2021/10/08 12:44:36;;;;;;;12.52;9.48;;;;;;;;;;4952401;28;19929;-80
2021/10/08 12:47:10;;;;;;;17.23;11.63;;;;;;;;;;4935186;29;20379;-79
2021/10/08 12:49:52;;;;;;;17.65;12.50;;;;;;;;;;4914787;29;20397;-80
2021/10/08 12:52:40;;;;;;;13.75;9.88;;;;;;;;;;4938618;28;20055;-80
2021/10/08 12:55:08;;;;;;;16.58;10.88;;;;;;;;;;4948884;29;20086;-80
2021/10/08 12:57:38;;;;;;;18.17;10.38;;;;;;;;;;4950860;28;20059;-80
2021/10/08 13:00:06;;;;;;;15.77;9.30;;;;;;;;;;4952608;28;20058;-80
2021/10/08 13:02:44;;;;;;;16.65;10.15;;;;;;;;;;4952237;28;20066;-80
2021/10/08 13:05:12;;;;;;;13.23;9.13;;;;;;;;;;4936511;29;20062;-80
2021/10/08 13:07:40;;;;;;;14.75;10.80;;;;;;;;;;4967358;28;20054;-82
2021/10/08 13:10:08;;;;;;;16.58;11.15;;;;;;;;;;4960112;28;20059;-82
2021/10/08 13:12:47;;;;;;;15.73;10.18;;;;;;;;;;4941888;28;20400;-79
2021/10/08 13:15:16;;;;;;;17.40;10.60;;;;;;;;;;4941806;29;20059;-80
2021/10/08 13:17:44;;;;;;;20.30;10.80;;;;;;;;;;4954013;28;20044;-80
2021/10/08 13:20:12;;;;;;;15.07;10.55;;;;;;;;;;4954696;29;20061;-79
2021/10/08 13:22:40;;;;;;;18.85;10.63;;;;;;;;;;4953987;29;20051;-80
2021/10/08 13:25:11;;;;;;;15.43;12.38;;;;;;;;;;4953197;29;20055;-80
2021/10/08 13:27:42;;;;;;;15.38;10.20;;;;;;;;;;4953859;29;20054;-80
2021/10/08 13:30:10;;;;;;;20.58;11.45;;;;;;;;;;4919599;29;20055;-80
2021/10/08 13:32:38;;;;;;;18.52;13.75;;;;;;;;;;4953112;29;20054;-80
2021/10/08 13:35:06;;;;;;;15.95;9.35;;;;;;;;;;4963134;28;20054;-80
2021/10/08 13:37:34;;;;;;;15.73;10.63;;;;;;;;;;4971683;28;20046;-80
2021/10/08 13:40:02;;;;;;;12.77;9.27;;;;;;;;;;4938417;29;20043;-80
2021/10/08 13:42:30;;;;;;;16.35;11.20;;;;;;;;;;4965131;28;20127;-80
2021/10/08 13:44:59;;;;;;;16.55;11.80;;;;;;;;;;4973101;28;20050;-80
2021/10/08 13:47:27;;;;;;;19.45;11.88;;;;;;;;;;4954297;28;20058;-81
2021/10/08 13:49:55;;;;;;;15.90;9.88;;;;;;;;;;4936618;29;20039;-80
2021/10/08 13:52:23;;;;;;;18.33;10.27;;;;;;;;;;4936477;29;20051;-81
2021/10/08 13:54:51;;;;;;;17.98;12.85;;;;;;;;;;4955324;28;20507;-80
2021/10/08 13:57:19;;;;;;;15.35;8.80;;;;;;;;;;4969429;28;20411;-81
2021/10/08 13:59:47;;;;;;;16.65;9.75;;;;;;;;;;4960675;28;20051;-81
2021/10/08 14:08:08;;;;;;;23.73;10.50;;;;;;;;;;4952438;29;20055;-80
2021/10/08 14:10:20;;;;;;;17.65;9.88;;;;;;;;;;4943759;28;20046;-81
2021/10/08 14:12:50;;;;;;;19.08;12.82;;;;;;;;;;4949929;29;20417;-82
2021/10/08 14:15:19;;;;;;;17.20;10.15;;;;;;;;;;4915704;29;20067;-81
2021/10/08 14:17:47;;;;;;;17.88;10.15;;;;;;;;;;4932643;29;20047;-81
2021/10/08 14:20:16;;;;;;;17.48;9.48;;;;;;;;;;4914856;29;20055;-82
2021/10/08 14:22:44;;;;;;;12.95;8.98;;;;;;;;;;4937486;28;20046;-82
2021/10/08 14:25:14;;;;;;;12.23;9.05;;;;;;;;;;4933504;29;20058;-82
2021/10/08 14:27:42;;;;;;;15.50;10.48;;;;;;;;;;4949121;29;20062;-81
2021/10/08 14:30:14;;;;;;;13.75;9.50;;;;;;;;;;4945843;28;20055;-81
2021/10/08 14:32:42;;;;;;;14.15;8.82;;;;;;;;;;4934750;29;20055;-81
2021/10/08 14:35:11;;;;;;;11.27;8.75;;;;;;;;;;4955242;28;20073;-83
2021/10/08 14:37:39;;;;;;;11.40;7.53;;;;;;;;;;4965821;28;20046;-81
2021/10/08 14:40:08;;;;;;;15.35;8.45;;;;;;;;;;4953055;29;20066;-81
2021/10/08 14:42:36;;;;;;;10.65;7.95;;;;;;;;;;4934384;29;20051;-82
2021/10/08 14:45:08;;;;;;;10.82;7.53;;;;;;;;;;4952428;29;20062;-82
2021/10/08 14:47:38;;;;;;;11.43;7.25;;;;;;;;;;4944755;29;20137;-81
2021/10/08 14:50:07;;;;;;;11.82;8.23;;;;;;;;;;4945565;28;20054;-81
2021/10/08 14:52:37;;;;;;;17.50;9.38;;;;;;;;;;4952639;28;20068;-81
2021/10/08 14:57:55;;;;;;;12.57;9.52;;;;;;;;;;4951629;29;20043;-81